sensor_id;sensor_type;location;lat;lon;timestamp;P1;durP1;ratioP1;P2;durP2;ratioP2
77544;SDS011;66672;50.328;7.610;2023-03-07T00:01:07;21.27;;;9.93;;
77544;SDS011;66672;50.328;7.610;2023-03-07T00:03:32;24.07;;;10.63;;
77544;SDS011;66672;50.328;7.610;2023-03-07T00:06:08;22.73;;;10.60;;
77544;SDS011;66672;50.328;7.610;2023-03-07T00:08:34;22.20;;;10.13;;
77544;SDS011;66672;50.328;7.610;2023-03-07T00:11:00;21.80;;;10.20;;
77544;SDS011;66672;50.328;7.610;2023-03-07T00:13:28;21.97;;;9.80;;
77544;SDS011;66672;50.328;7.610;2023-03-07T00:16:04;22.23;;;10.23;;
77544;SDS011;66672;50.328;7.610;2023-03-07T00:18:36;21.13;;;10.37;;
77544;SDS011;66672;50.328;7.610;2023-03-07T00:21:05;23.10;;;10.40;;
77544;SDS011;66672;50.328;7.610;2023-03-07T00:23:33;22.03;;;10.37;;
77544;SDS011;66672;50.328;7.610;2023-03-07T00:26:00;18.63;;;10.57;;
77544;SDS011;66672;50.328;7.610;2023-03-07T00:28:28;21.53;;;9.40;;
77544;SDS011;66672;50.328;7.610;2023-03-07T00:30:53;16.70;;;7.83;;
77544;SDS011;66672;50.328;7.610;2023-03-07T00:33:19;21.37;;;9.90;;
77544;SDS011;66672;50.328;7.610;2023-03-07T00:35:52;17.97;;;8.23;;
77544;SDS011;66672;50.328;7.610;2023-03-07T00:38:22;19.73;;;8.83;;
77544;SDS011;66672;50.328;7.610;2023-03-07T00:40:54;13.13;;;6.17;;
77544;SDS011;66672;50.328;7.610;2023-03-07T00:43:26;19.43;;;8.47;;
77544;SDS011;66672;50.328;7.610;2023-03-07T00:45:52;19.17;;;9.07;;
77544;SDS011;66672;50.328;7.610;2023-03-07T00:48:17;18.97;;;9.13;;
77544;SDS011;66672;50.328;7.610;2023-03-07T00:50:43;19.43;;;9.47;;
77544;SDS011;66672;50.328;7.610;2023-03-07T00:53:09;17.50;;;7.53;;
77544;SDS011;66672;50.328;7.610;2023-03-07T00:55:34;16.13;;;8.03;;
77544;SDS011;66672;50.328;7.610;2023-03-07T00:57:59;16.27;;;8.03;;
77544;SDS011;66672;50.328;7.610;2023-03-07T01:00:24;16.03;;;7.60;;
77544;SDS011;66672;50.328;7.610;2023-03-07T01:02:50;18.10;;;9.57;;
77544;SDS011;66672;50.328;7.610;2023-03-07T01:05:15;18.07;;;9.23;;
77544;SDS011;66672;50.328;7.610;2023-03-07T01:07:41;14.87;;;7.70;;
77544;SDS011;66672;50.328;7.610;2023-03-07T01:10:06;19.73;;;8.63;;
77544;SDS011;66672;50.328;7.610;2023-03-07T01:12:32;12.87;;;6.77;;
77544;SDS011;66672;50.328;7.610;2023-03-07T01:14:57;19.20;;;8.60;;
77544;SDS011;66672;50.328;7.610;2023-03-07T01:17:22;17.97;;;8.40;;
77544;SDS011;66672;50.328;7.610;2023-03-07T01:19:48;13.33;;;6.93;;
77544;SDS011;66672;50.328;7.610;2023-03-07T01:22:13;17.40;;;7.07;;
77544;SDS011;66672;50.328;7.610;2023-03-07T01:24:38;15.83;;;7.97;;
77544;SDS011;66672;50.328;7.610;2023-03-07T01:27:03;18.37;;;7.73;;
77544;SDS011;66672;50.328;7.610;2023-03-07T01:29:29;15.07;;;5.90;;
77544;SDS011;66672;50.328;7.610;2023-03-07T01:31:54;16.47;;;8.33;;
77544;SDS011;66672;50.328;7.610;2023-03-07T01:34:19;11.07;;;5.30;;
77544;SDS011;66672;50.328;7.610;2023-03-07T01:36:45;13.50;;;6.53;;
77544;SDS011;66672;50.328;7.610;2023-03-07T01:39:14;14.77;;;7.23;;
77544;SDS011;66672;50.328;7.610;2023-03-07T01:41:41;15.10;;;7.37;;
77544;SDS011;66672;50.328;7.610;2023-03-07T01:44:17;15.57;;;7.27;;
77544;SDS011;66672;50.328;7.610;2023-03-07T01:46:54;14.93;;;7.00;;
77544;SDS011;66672;50.328;7.610;2023-03-07T01:49:21;14.10;;;7.30;;
77544;SDS011;66672;50.328;7.610;2023-03-07T01:51:54;14.20;;;7.27;;
77544;SDS011;66672;50.328;7.610;2023-03-07T01:54:26;11.13;;;5.27;;
77544;SDS011;66672;50.328;7.610;2023-03-07T01:56:54;15.10;;;7.53;;
77544;SDS011;66672;50.328;7.610;2023-03-07T01:59:23;12.87;;;7.17;;
77544;SDS011;66672;50.328;7.610;2023-03-07T02:01:53;12.35;;;5.82;;
77544;SDS011;66672;50.328;7.610;2023-03-07T02:04:21;13.17;;;5.60;;
77544;SDS011;66672;50.328;7.610;2023-03-07T02:06:54;12.80;;;6.20;;
77544;SDS011;66672;50.328;7.610;2023-03-07T02:09:19;14.13;;;6.67;;
77544;SDS011;66672;50.328;7.610;2023-03-07T02:11:48;15.37;;;7.53;;
77544;SDS011;66672;50.328;7.610;2023-03-07T02:14:14;14.20;;;7.47;;
77544;SDS011;66672;50.328;7.610;2023-03-07T02:16:39;14.83;;;6.50;;
77544;SDS011;66672;50.328;7.610;2023-03-07T02:19:24;15.47;;;7.40;;
77544;SDS011;66672;50.328;7.610;2023-03-07T02:22:03;10.10;;;5.20;;
77544;SDS011;66672;50.328;7.610;2023-03-07T02:25:12;13.43;;;6.53;;
77544;SDS011;66672;50.328;7.610;2023-03-07T02:27:43;15.17;;;7.57;;
77544;SDS011;66672;50.328;7.610;2023-03-07T02:30:10;17.63;;;8.10;;
77544;SDS011;66672;50.328;7.610;2023-03-07T02:32:35;16.10;;;8.27;;
77544;SDS011;66672;50.328;7.610;2023-03-07T02:35:01;12.73;;;6.60;;
77544;SDS011;66672;50.328;7.610;2023-03-07T02:37:28;16.63;;;8.27;;
77544;SDS011;66672;50.328;7.610;2023-03-07T02:39:57;15.77;;;8.10;;
77544;SDS011;66672;50.328;7.610;2023-03-07T02:42:26;15.27;;;7.83;;
77544;SDS011;66672;50.328;7.610;2023-03-07T02:44:56;12.27;;;5.60;;
77544;SDS011;66672;50.328;7.610;2023-03-07T02:47:23;10.80;;;6.03;;
77544;SDS011;66672;50.328;7.610;2023-03-07T02:49:48;18.23;;;8.50;;
77544;SDS011;66672;50.328;7.610;2023-03-07T02:52:13;15.37;;;8.27;;
77544;SDS011;66672;50.328;7.610;2023-03-07T02:54:39;15.50;;;8.47;;
77544;SDS011;66672;50.328;7.610;2023-03-07T02:57:04;16.97;;;8.83;;
77544;SDS011;66672;50.328;7.610;2023-03-07T02:59:29;15.37;;;8.20;;
77544;SDS011;66672;50.328;7.610;2023-03-07T03:01:55;14.93;;;7.47;;
77544;SDS011;66672;50.328;7.610;2023-03-07T03:04:21;15.30;;;7.73;;
77544;SDS011;66672;50.328;7.610;2023-03-07T03:06:46;17.00;;;8.17;;
77544;SDS011;66672;50.328;7.610;2023-03-07T03:09:12;15.33;;;7.63;;
77544;SDS011;66672;50.328;7.610;2023-03-07T03:11:37;17.33;;;7.90;;
77544;SDS011;66672;50.328;7.610;2023-03-07T03:14:03;14.03;;;7.27;;
77544;SDS011;66672;50.328;7.610;2023-03-07T03:16:28;15.20;;;7.30;;
77544;SDS011;66672;50.328;7.610;2023-03-07T03:18:54;17.77;;;8.73;;
77544;SDS011;66672;50.328;7.610;2023-03-07T03:21:19;14.63;;;8.40;;
77544;SDS011;66672;50.328;7.610;2023-03-07T03:23:44;13.77;;;7.80;;
77544;SDS011;66672;50.328;7.610;2023-03-07T03:26:09;20.27;;;10.17;;
77544;SDS011;66672;50.328;7.610;2023-03-07T03:28:36;17.80;;;8.23;;
77544;SDS011;66672;50.328;7.610;2023-03-07T03:31:03;17.63;;;8.70;;
77544;SDS011;66672;50.328;7.610;2023-03-07T03:33:30;19.00;;;9.43;;
77544;SDS011;66672;50.328;7.610;2023-03-07T03:35:56;20.17;;;10.20;;
77544;SDS011;66672;50.328;7.610;2023-03-07T03:38:23;21.00;;;10.23;;
77544;SDS011;66672;50.328;7.610;2023-03-07T03:40:48;20.40;;;10.20;;
77544;SDS011;66672;50.328;7.610;2023-03-07T03:43:13;16.93;;;9.03;;
77544;SDS011;66672;50.328;7.610;2023-03-07T03:45:39;21.87;;;11.27;;
77544;SDS011;66672;50.328;7.610;2023-03-07T03:48:05;18.33;;;8.80;;
77544;SDS011;66672;50.328;7.610;2023-03-07T03:50:31;20.13;;;9.43;;
77544;SDS011;66672;50.328;7.610;2023-03-07T03:52:56;21.87;;;11.27;;
77544;SDS011;66672;50.328;7.610;2023-03-07T03:55:21;19.23;;;9.20;;
77544;SDS011;66672;50.328;7.610;2023-03-07T03:57:46;19.47;;;10.07;;
77544;SDS011;66672;50.328;7.610;2023-03-07T04:00:12;20.03;;;10.13;;
77544;SDS011;66672;50.328;7.610;2023-03-07T04:02:39;27.43;;;12.53;;
77544;SDS011;66672;50.328;7.610;2023-03-07T04:05:04;22.40;;;10.87;;
77544;SDS011;66672;50.328;7.610;2023-03-07T04:07:30;16.20;;;8.93;;
77544;SDS011;66672;50.328;7.610;2023-03-07T04:09:56;25.73;;;11.47;;
77544;SDS011;66672;50.328;7.610;2023-03-07T04:12:21;16.00;;;8.00;;
77544;SDS011;66672;50.328;7.610;2023-03-07T04:14:46;23.27;;;12.13;;
77544;SDS011;66672;50.328;7.610;2023-03-07T04:17:12;16.13;;;7.53;;
77544;SDS011;66672;50.328;7.610;2023-03-07T04:19:37;21.53;;;10.60;;
77544;SDS011;66672;50.328;7.610;2023-03-07T04:22:02;23.57;;;11.60;;
77544;SDS011;66672;50.328;7.610;2023-03-07T04:24:28;21.20;;;9.37;;
77544;SDS011;66672;50.328;7.610;2023-03-07T04:26:53;24.00;;;11.30;;
77544;SDS011;66672;50.328;7.610;2023-03-07T04:29:18;21.57;;;10.50;;
77544;SDS011;66672;50.328;7.610;2023-03-07T04:31:44;25.93;;;12.63;;
77544;SDS011;66672;50.328;7.610;2023-03-07T04:34:09;18.20;;;10.00;;
77544;SDS011;66672;50.328;7.610;2023-03-07T04:36:35;23.73;;;11.90;;
77544;SDS011;66672;50.328;7.610;2023-03-07T04:39:00;22.20;;;10.77;;
77544;SDS011;66672;50.328;7.610;2023-03-07T04:41:26;22.73;;;10.57;;
77544;SDS011;66672;50.328;7.610;2023-03-07T04:43:51;22.03;;;12.13;;
77544;SDS011;66672;50.328;7.610;2023-03-07T04:46:17;21.77;;;10.60;;
77544;SDS011;66672;50.328;7.610;2023-03-07T04:48:42;22.73;;;11.90;;
77544;SDS011;66672;50.328;7.610;2023-03-07T04:51:09;22.93;;;11.17;;
77544;SDS011;66672;50.328;7.610;2023-03-07T04:53:34;21.70;;;10.53;;
77544;SDS011;66672;50.328;7.610;2023-03-07T04:56:00;22.63;;;11.37;;
77544;SDS011;66672;50.328;7.610;2023-03-07T04:58:28;21.13;;;10.87;;
77544;SDS011;66672;50.328;7.610;2023-03-07T05:00:54;23.43;;;11.97;;
77544;SDS011;66672;50.328;7.610;2023-03-07T05:03:23;19.27;;;9.40;;
77544;SDS011;66672;50.328;7.610;2023-03-07T05:05:49;23.90;;;10.83;;
77544;SDS011;66672;50.328;7.610;2023-03-07T05:08:15;21.93;;;11.13;;
77544;SDS011;66672;50.328;7.610;2023-03-07T05:10:40;22.80;;;10.40;;
77544;SDS011;66672;50.328;7.610;2023-03-07T05:13:06;19.63;;;9.33;;
77544;SDS011;66672;50.328;7.610;2023-03-07T05:15:31;16.13;;;8.70;;
77544;SDS011;66672;50.328;7.610;2023-03-07T05:17:57;17.07;;;8.80;;
77544;SDS011;66672;50.328;7.610;2023-03-07T05:20:22;23.37;;;10.53;;
77544;SDS011;66672;50.328;7.610;2023-03-07T05:22:48;21.37;;;10.47;;
77544;SDS011;66672;50.328;7.610;2023-03-07T05:25:13;19.03;;;9.30;;
77544;SDS011;66672;50.328;7.610;2023-03-07T05:27:39;23.67;;;11.90;;
77544;SDS011;66672;50.328;7.610;2023-03-07T05:30:04;21.67;;;10.60;;
77544;SDS011;66672;50.328;7.610;2023-03-07T05:32:30;17.37;;;8.07;;
77544;SDS011;66672;50.328;7.610;2023-03-07T05:34:56;22.37;;;11.23;;
77544;SDS011;66672;50.328;7.610;2023-03-07T05:37:21;20.27;;;8.67;;
77544;SDS011;66672;50.328;7.610;2023-03-07T05:39:47;19.03;;;10.33;;
77544;SDS011;66672;50.328;7.610;2023-03-07T05:42:12;17.10;;;8.47;;
77544;SDS011;66672;50.328;7.610;2023-03-07T05:44:39;20.93;;;10.17;;
77544;SDS011;66672;50.328;7.610;2023-03-07T05:47:05;19.27;;;9.97;;
77544;SDS011;66672;50.328;7.610;2023-03-07T05:49:30;19.90;;;10.17;;
77544;SDS011;66672;50.328;7.610;2023-03-07T05:51:55;14.40;;;6.27;;
77544;SDS011;66672;50.328;7.610;2023-03-07T05:54:21;19.80;;;10.30;;
77544;SDS011;66672;50.328;7.610;2023-03-07T05:56:46;16.43;;;9.13;;
77544;SDS011;66672;50.328;7.610;2023-03-07T05:59:11;20.73;;;10.40;;
77544;SDS011;66672;50.328;7.610;2023-03-07T06:01:39;18.10;;;8.87;;
77544;SDS011;66672;50.328;7.610;2023-03-07T06:04:05;21.47;;;9.73;;
77544;SDS011;66672;50.328;7.610;2023-03-07T06:06:31;10.60;;;5.17;;
77544;SDS011;66672;50.328;7.610;2023-03-07T06:08:56;16.37;;;7.97;;
77544;SDS011;66672;50.328;7.610;2023-03-07T06:11:21;18.67;;;8.17;;
77544;SDS011;66672;50.328;7.610;2023-03-07T06:13:47;17.57;;;8.67;;
77544;SDS011;66672;50.328;7.610;2023-03-07T06:16:12;17.80;;;8.67;;
77544;SDS011;66672;50.328;7.610;2023-03-07T06:18:37;18.67;;;8.47;;
77544;SDS011;66672;50.328;7.610;2023-03-07T06:21:04;11.93;;;5.27;;
77544;SDS011;66672;50.328;7.610;2023-03-07T06:23:32;18.37;;;9.10;;
77544;SDS011;66672;50.328;7.610;2023-03-07T06:25:59;22.13;;;9.43;;
77544;SDS011;66672;50.328;7.610;2023-03-07T06:28:25;18.23;;;8.57;;
77544;SDS011;66672;50.328;7.610;2023-03-07T06:30:50;15.70;;;8.23;;
77544;SDS011;66672;50.328;7.610;2023-03-07T06:33:16;18.33;;;9.23;;
77544;SDS011;66672;50.328;7.610;2023-03-07T06:35:42;19.90;;;9.77;;
77544;SDS011;66672;50.328;7.610;2023-03-07T06:38:08;9.03;;;4.13;;
77544;SDS011;66672;50.328;7.610;2023-03-07T06:40:35;18.70;;;8.43;;
77544;SDS011;66672;50.328;7.610;2023-03-07T06:43:00;21.20;;;10.27;;
77544;SDS011;66672;50.328;7.610;2023-03-07T06:45:26;16.33;;;7.47;;
77544;SDS011;66672;50.328;7.610;2023-03-07T06:47:51;20.20;;;9.07;;
77544;SDS011;66672;50.328;7.610;2023-03-07T06:50:17;8.83;;;5.10;;
77544;SDS011;66672;50.328;7.610;2023-03-07T06:52:42;17.53;;;7.57;;
77544;SDS011;66672;50.328;7.610;2023-03-07T06:55:08;14.13;;;7.67;;
77544;SDS011;66672;50.328;7.610;2023-03-07T06:57:34;13.67;;;7.03;;
77544;SDS011;66672;50.328;7.610;2023-03-07T07:00:00;16.50;;;8.73;;
77544;SDS011;66672;50.328;7.610;2023-03-07T07:02:26;15.40;;;8.07;;
77544;SDS011;66672;50.328;7.610;2023-03-07T07:04:51;16.10;;;8.23;;
77544;SDS011;66672;50.328;7.610;2023-03-07T07:07:16;16.67;;;7.97;;
77544;SDS011;66672;50.328;7.610;2023-03-07T07:09:42;15.87;;;7.23;;
77544;SDS011;66672;50.328;7.610;2023-03-07T07:12:07;16.80;;;8.33;;
77544;SDS011;66672;50.328;7.610;2023-03-07T07:14:33;17.67;;;9.03;;
77544;SDS011;66672;50.328;7.610;2023-03-07T07:16:58;17.37;;;8.63;;
77544;SDS011;66672;50.328;7.610;2023-03-07T07:19:24;18.50;;;7.63;;
77544;SDS011;66672;50.328;7.610;2023-03-07T07:21:51;15.13;;;7.77;;
77544;SDS011;66672;50.328;7.610;2023-03-07T07:24:16;18.27;;;8.10;;
77544;SDS011;66672;50.328;7.610;2023-03-07T07:26:42;12.33;;;5.97;;
77544;SDS011;66672;50.328;7.610;2023-03-07T07:29:07;16.83;;;7.77;;
77544;SDS011;66672;50.328;7.610;2023-03-07T07:31:33;11.50;;;5.90;;
77544;SDS011;66672;50.328;7.610;2023-03-07T07:33:58;14.50;;;6.03;;
77544;SDS011;66672;50.328;7.610;2023-03-07T07:36:24;13.97;;;6.80;;
77544;SDS011;66672;50.328;7.610;2023-03-07T07:38:49;15.57;;;7.83;;
77544;SDS011;66672;50.328;7.610;2023-03-07T07:41:14;14.33;;;7.00;;
77544;SDS011;66672;50.328;7.610;2023-03-07T07:43:42;15.30;;;7.93;;
77544;SDS011;66672;50.328;7.610;2023-03-07T07:46:09;16.47;;;8.40;;
77544;SDS011;66672;50.328;7.610;2023-03-07T07:48:34;18.37;;;7.70;;
77544;SDS011;66672;50.328;7.610;2023-03-07T07:51:02;13.20;;;6.00;;
77544;SDS011;66672;50.328;7.610;2023-03-07T07:53:29;17.20;;;8.10;;
77544;SDS011;66672;50.328;7.610;2023-03-07T07:55:55;16.40;;;7.47;;
77544;SDS011;66672;50.328;7.610;2023-03-07T07:58:20;14.30;;;7.17;;
77544;SDS011;66672;50.328;7.610;2023-03-07T08:00:46;17.23;;;8.57;;
77544;SDS011;66672;50.328;7.610;2023-03-07T08:03:11;13.80;;;7.13;;
77544;SDS011;66672;50.328;7.610;2023-03-07T08:05:36;13.67;;;7.00;;
77544;SDS011;66672;50.328;7.610;2023-03-07T08:08:02;15.57;;;7.73;;
77544;SDS011;66672;50.328;7.610;2023-03-07T08:10:27;19.13;;;8.30;;
77544;SDS011;66672;50.328;7.610;2023-03-07T08:12:53;15.77;;;7.23;;
77544;SDS011;66672;50.328;7.610;2023-03-07T08:15:18;14.03;;;7.23;;
77544;SDS011;66672;50.328;7.610;2023-03-07T08:17:47;11.20;;;5.50;;
77544;SDS011;66672;50.328;7.610;2023-03-07T08:20:15;17.83;;;7.50;;
77544;SDS011;66672;50.328;7.610;2023-03-07T08:22:40;16.90;;;6.60;;
77544;SDS011;66672;50.328;7.610;2023-03-07T08:25:09;16.13;;;7.27;;
77544;SDS011;66672;50.328;7.610;2023-03-07T08:27:41;14.32;;;7.45;;
77544;SDS011;66672;50.328;7.610;2023-03-07T08:30:06;11.23;;;5.77;;
77544;SDS011;66672;50.328;7.610;2023-03-07T08:32:32;16.57;;;7.17;;
77544;SDS011;66672;50.328;7.610;2023-03-07T08:34:57;14.43;;;6.97;;
77544;SDS011;66672;50.328;7.610;2023-03-07T08:37:22;14.93;;;7.57;;
77544;SDS011;66672;50.328;7.610;2023-03-07T08:39:48;15.63;;;6.53;;
77544;SDS011;66672;50.328;7.610;2023-03-07T08:42:13;14.13;;;5.30;;
77544;SDS011;66672;50.328;7.610;2023-03-07T08:44:38;10.93;;;5.63;;
77544;SDS011;66672;50.328;7.610;2023-03-07T08:47:04;18.40;;;7.47;;
77544;SDS011;66672;50.328;7.610;2023-03-07T08:49:29;12.73;;;6.43;;
77544;SDS011;66672;50.328;7.610;2023-03-07T08:51:54;12.63;;;5.70;;
77544;SDS011;66672;50.328;7.610;2023-03-07T08:54:20;8.60;;;3.87;;
77544;SDS011;66672;50.328;7.610;2023-03-07T08:56:45;17.50;;;7.27;;
77544;SDS011;66672;50.328;7.610;2023-03-07T08:59:10;12.40;;;5.60;;
77544;SDS011;66672;50.328;7.610;2023-03-07T09:01:36;14.50;;;7.07;;
77544;SDS011;66672;50.328;7.610;2023-03-07T09:04:01;12.97;;;7.03;;
77544;SDS011;66672;50.328;7.610;2023-03-07T09:06:26;16.07;;;7.60;;
77544;SDS011;66672;50.328;7.610;2023-03-07T09:08:52;13.40;;;6.67;;
77544;SDS011;66672;50.328;7.610;2023-03-07T09:11:17;14.70;;;6.80;;
77544;SDS011;66672;50.328;7.610;2023-03-07T09:13:43;15.27;;;6.67;;
77544;SDS011;66672;50.328;7.610;2023-03-07T09:16:09;13.57;;;7.07;;
77544;SDS011;66672;50.328;7.610;2023-03-07T09:18:35;19.23;;;6.80;;
77544;SDS011;66672;50.328;7.610;2023-03-07T09:21:01;14.87;;;6.90;;
77544;SDS011;66672;50.328;7.610;2023-03-07T09:23:27;13.30;;;5.57;;
77544;SDS011;66672;50.328;7.610;2023-03-07T09:25:52;11.13;;;5.77;;
77544;SDS011;66672;50.328;7.610;2023-03-07T09:28:17;12.60;;;5.37;;
77544;SDS011;66672;50.328;7.610;2023-03-07T09:30:43;13.93;;;6.57;;
77544;SDS011;66672;50.328;7.610;2023-03-07T09:33:08;12.87;;;6.27;;
77544;SDS011;66672;50.328;7.610;2023-03-07T09:35:33;11.97;;;6.43;;
77544;SDS011;66672;50.328;7.610;2023-03-07T09:37:59;14.37;;;6.73;;
77544;SDS011;66672;50.328;7.610;2023-03-07T09:40:25;15.40;;;7.07;;
77544;SDS011;66672;50.328;7.610;2023-03-07T09:42:59;14.40;;;6.83;;
77544;SDS011;66672;50.328;7.610;2023-03-07T09:48:46;13.63;;;5.60;;
77544;SDS011;66672;50.328;7.610;2023-03-07T09:51:42;13.10;;;5.83;;
77544;SDS011;66672;50.328;7.610;2023-03-07T09:54:11;13.77;;;6.67;;
77544;SDS011;66672;50.328;7.610;2023-03-07T09:56:54;10.00;;;4.53;;
77544;SDS011;66672;50.328;7.610;2023-03-07T10:02:42;10.43;;;4.60;;
77544;SDS011;66672;50.328;7.610;2023-03-07T10:08:08;14.90;;;7.13;;
77544;SDS011;66672;50.328;7.610;2023-03-07T10:10:46;12.27;;;5.30;;
77544;SDS011;66672;50.328;7.610;2023-03-07T10:13:40;12.03;;;6.43;;
77544;SDS011;66672;50.328;7.610;2023-03-07T10:19:09;13.03;;;6.70;;
77544;SDS011;66672;50.328;7.610;2023-03-07T10:24:37;12.10;;;5.70;;
77544;SDS011;66672;50.328;7.610;2023-03-07T10:27:10;12.40;;;6.10;;
77544;SDS011;66672;50.328;7.610;2023-03-07T10:29:58;11.03;;;6.90;;
77544;SDS011;66672;50.328;7.610;2023-03-07T10:40:19;15.77;;;6.33;;
77544;SDS011;66672;50.328;7.610;2023-03-07T10:42:45;11.77;;;5.37;;
77544;SDS011;66672;50.328;7.610;2023-03-07T10:45:12;11.97;;;4.57;;
77544;SDS011;66672;50.328;7.610;2023-03-07T10:47:38;13.20;;;4.67;;
77544;SDS011;66672;50.328;7.610;2023-03-07T10:52:49;11.07;;;5.10;;
77544;SDS011;66672;50.328;7.610;2023-03-07T11:00:44;14.23;;;6.63;;
77544;SDS011;66672;50.328;7.610;2023-03-07T11:05:56;24.67;;;7.73;;
77544;SDS011;66672;50.328;7.610;2023-03-07T11:11:00;19.17;;;6.67;;
77544;SDS011;66672;50.328;7.610;2023-03-07T11:13:27;12.47;;;7.07;;
77544;SDS011;66672;50.328;7.610;2023-03-07T11:18:40;27.03;;;7.97;;
77544;SDS011;66672;50.328;7.610;2023-03-07T11:21:24;23.80;;;7.00;;
77544;SDS011;66672;50.328;7.610;2023-03-07T11:24:17;16.20;;;7.17;;
77544;SDS011;66672;50.328;7.610;2023-03-07T11:26:48;10.33;;;5.90;;
77544;SDS011;66672;50.328;7.610;2023-03-07T11:29:18;14.33;;;6.40;;
77544;SDS011;66672;50.328;7.610;2023-03-07T11:34:38;14.40;;;6.87;;
77544;SDS011;66672;50.328;7.610;2023-03-07T11:37:26;13.83;;;5.80;;
77544;SDS011;66672;50.328;7.610;2023-03-07T11:40:13;12.55;;;5.97;;
77544;SDS011;66672;50.328;7.610;2023-03-07T11:42:49;11.13;;;5.30;;
77544;SDS011;66672;50.328;7.610;2023-03-07T11:45:24;12.17;;;6.17;;
77544;SDS011;66672;50.328;7.610;2023-03-07T11:48:08;11.13;;;5.40;;
77544;SDS011;66672;50.328;7.610;2023-03-07T11:50:48;10.20;;;5.57;;
77544;SDS011;66672;50.328;7.610;2023-03-07T12:23:27;12.50;;;5.47;;
77544;SDS011;66672;50.328;7.610;2023-03-07T12:26:02;11.30;;;5.23;;
77544;SDS011;66672;50.328;7.610;2023-03-07T12:31:22;8.30;;;4.50;;
77544;SDS011;66672;50.328;7.610;2023-03-07T12:39:16;10.93;;;5.17;;
77544;SDS011;66672;50.328;7.610;2023-03-07T12:42:03;9.60;;;4.77;;
77544;SDS011;66672;50.328;7.610;2023-03-07T12:49:53;10.67;;;4.90;;
77544;SDS011;66672;50.328;7.610;2023-03-07T12:52:24;11.67;;;4.93;;
77544;SDS011;66672;50.328;7.610;2023-03-07T12:57:54;11.33;;;5.00;;
77544;SDS011;66672;50.328;7.610;2023-03-07T13:00:27;10.90;;;5.07;;
77544;SDS011;66672;50.328;7.610;2023-03-07T13:03:00;12.87;;;5.50;;
77544;SDS011;66672;50.328;7.610;2023-03-07T13:05:26;10.05;;;4.80;;
77544;SDS011;66672;50.328;7.610;2023-03-07T13:07:51;10.33;;;4.47;;
77544;SDS011;66672;50.328;7.610;2023-03-07T13:10:18;9.67;;;5.20;;
77544;SDS011;66672;50.328;7.610;2023-03-07T13:12:44;9.33;;;5.20;;
77544;SDS011;66672;50.328;7.610;2023-03-07T13:27:44;9.10;;;4.80;;
77544;SDS011;66672;50.328;7.610;2023-03-07T13:53:14;8.25;;;4.10;;
77544;SDS011;66672;50.328;7.610;2023-03-07T13:55:41;8.18;;;4.15;;
77544;SDS011;66672;50.328;7.610;2023-03-07T13:58:22;10.63;;;4.57;;
77544;SDS011;66672;50.328;7.610;2023-03-07T14:00:52;9.40;;;4.18;;
77544;SDS011;66672;50.328;7.610;2023-03-07T14:03:31;8.40;;;3.63;;
77544;SDS011;66672;50.328;7.610;2023-03-07T14:06:00;7.53;;;3.72;;
77544;SDS011;66672;50.328;7.610;2023-03-07T14:08:27;8.40;;;3.75;;
77544;SDS011;66672;50.328;7.610;2023-03-07T14:10:53;7.72;;;3.53;;
77544;SDS011;66672;50.328;7.610;2023-03-07T14:15:55;7.90;;;4.20;;
77544;SDS011;66672;50.328;7.610;2023-03-07T14:26:14;8.63;;;4.43;;
77544;SDS011;66672;50.328;7.610;2023-03-07T14:28:48;8.30;;;4.03;;
77544;SDS011;66672;50.328;7.610;2023-03-07T14:31:46;8.80;;;4.70;;
77544;SDS011;66672;50.328;7.610;2023-03-07T14:34:47;8.82;;;4.43;;
77544;SDS011;66672;50.328;7.610;2023-03-07T14:36:57;9.43;;;4.53;;
77544;SDS011;66672;50.328;7.610;2023-03-07T14:39:24;12.75;;;4.38;;
77544;SDS011;66672;50.328;7.610;2023-03-07T14:47:16;12.63;;;5.55;;
77544;SDS011;66672;50.328;7.610;2023-03-07T14:52:12;11.40;;;5.00;;
77544;SDS011;66672;50.328;7.610;2023-03-07T14:54:38;10.20;;;4.70;;
77544;SDS011;66672;50.328;7.610;2023-03-07T14:57:03;10.20;;;4.70;;
77544;SDS011;66672;50.328;7.610;2023-03-07T14:59:29;10.77;;;4.95;;
77544;SDS011;66672;50.328;7.610;2023-03-07T15:01:54;10.18;;;5.15;;
77544;SDS011;66672;50.328;7.610;2023-03-07T15:07:16;12.70;;;5.75;;
77544;SDS011;66672;50.328;7.610;2023-03-07T15:09:40;8.90;;;4.70;;
77544;SDS011;66672;50.328;7.610;2023-03-07T15:12:10;10.52;;;5.30;;
77544;SDS011;66672;50.328;7.610;2023-03-07T15:17:05;11.23;;;4.43;;
77544;SDS011;66672;50.328;7.610;2023-03-07T15:19:38;8.90;;;4.77;;
77544;SDS011;66672;50.328;7.610;2023-03-07T15:22:06;10.83;;;5.47;;
77544;SDS011;66672;50.328;7.610;2023-03-07T15:24:33;9.83;;;5.50;;
77544;SDS011;66672;50.328;7.610;2023-03-07T15:26:59;9.80;;;5.40;;
77544;SDS011;66672;50.328;7.610;2023-03-07T15:29:26;10.17;;;5.13;;
77544;SDS011;66672;50.328;7.610;2023-03-07T15:31:56;10.93;;;5.37;;
77544;SDS011;66672;50.328;7.610;2023-03-07T15:34:23;10.50;;;5.37;;
77544;SDS011;66672;50.328;7.610;2023-03-07T15:36:49;11.38;;;5.45;;
77544;SDS011;66672;50.328;7.610;2023-03-07T15:42:02;8.40;;;4.47;;
77544;SDS011;66672;50.328;7.610;2023-03-07T15:44:27;9.65;;;5.00;;
77544;SDS011;66672;50.328;7.610;2023-03-07T15:46:53;13.27;;;5.27;;
77544;SDS011;66672;50.328;7.610;2023-03-07T15:49:21;11.63;;;5.18;;
77544;SDS011;66672;50.328;7.610;2023-03-07T15:51:48;11.43;;;5.28;;
77544;SDS011;66672;50.328;7.610;2023-03-07T15:56:45;11.00;;;5.25;;
77544;SDS011;66672;50.328;7.610;2023-03-07T15:59:32;8.90;;;5.10;;
77544;SDS011;66672;50.328;7.610;2023-03-07T16:01:56;12.43;;;5.43;;
77544;SDS011;66672;50.328;7.610;2023-03-07T16:04:29;8.60;;;3.87;;
77544;SDS011;66672;50.328;7.610;2023-03-07T16:06:55;10.52;;;5.20;;
77544;SDS011;66672;50.328;7.610;2023-03-07T16:09:20;9.00;;;4.80;;
77544;SDS011;66672;50.328;7.610;2023-03-07T16:11:45;8.77;;;5.07;;
77544;SDS011;66672;50.328;7.610;2023-03-07T16:14:24;9.80;;;5.60;;
77544;SDS011;66672;50.328;7.610;2023-03-07T16:16:53;11.73;;;5.90;;
77544;SDS011;66672;50.328;7.610;2023-03-07T16:19:20;10.87;;;6.00;;
77544;SDS011;66672;50.328;7.610;2023-03-07T16:21:45;12.43;;;5.80;;
77544;SDS011;66672;50.328;7.610;2023-03-07T16:24:10;12.07;;;5.60;;
77544;SDS011;66672;50.328;7.610;2023-03-07T16:26:36;12.23;;;5.60;;
77544;SDS011;66672;50.328;7.610;2023-03-07T16:29:02;10.43;;;5.33;;
77544;SDS011;66672;50.328;7.610;2023-03-07T16:31:28;12.90;;;6.97;;
77544;SDS011;66672;50.328;7.610;2023-03-07T16:33:53;11.47;;;4.93;;
77544;SDS011;66672;50.328;7.610;2023-03-07T16:36:18;12.17;;;6.40;;
77544;SDS011;66672;50.328;7.610;2023-03-07T16:38:44;11.97;;;6.20;;
77544;SDS011;66672;50.328;7.610;2023-03-07T16:41:14;11.10;;;5.90;;
77544;SDS011;66672;50.328;7.610;2023-03-07T16:43:39;13.40;;;6.00;;
77544;SDS011;66672;50.328;7.610;2023-03-07T16:46:06;12.00;;;5.50;;
77544;SDS011;66672;50.328;7.610;2023-03-07T16:48:34;11.70;;;5.87;;
77544;SDS011;66672;50.328;7.610;2023-03-07T16:51:00;11.63;;;6.40;;
77544;SDS011;66672;50.328;7.610;2023-03-07T16:53:25;12.20;;;5.87;;
77544;SDS011;66672;50.328;7.610;2023-03-07T16:55:50;10.63;;;4.97;;
77544;SDS011;66672;50.328;7.610;2023-03-07T16:58:18;11.73;;;5.47;;
77544;SDS011;66672;50.328;7.610;2023-03-07T17:00:44;16.47;;;8.47;;
77544;SDS011;66672;50.328;7.610;2023-03-07T17:03:09;11.50;;;6.23;;
77544;SDS011;66672;50.328;7.610;2023-03-07T17:05:35;13.37;;;6.07;;
77544;SDS011;66672;50.328;7.610;2023-03-07T17:08:00;15.27;;;6.43;;
77544;SDS011;66672;50.328;7.610;2023-03-07T17:10:25;11.50;;;5.47;;